createdAt,value
2018-01-22T00:01:07.121Z,82.09
2018-01-22T00:03:33.749Z,81.88
2018-01-22T00:06:00.374Z,82.20
2018-01-22T00:08:26.943Z,82.18
2018-01-22T00:10:53.510Z,81.88
2018-01-22T00:13:20.078Z,81.84
2018-01-22T00:15:46.694Z,82.36
2018-01-22T00:18:13.287Z,82.24
2018-01-22T00:20:39.894Z,81.87
2018-01-22T00:23:06.526Z,82.07
2018-01-22T00:25:33.097Z,82.12
2018-01-22T00:27:59.648Z,82.03
2018-01-22T00:30:26.247Z,81.87
2018-01-22T00:32:52.797Z,82.25
2018-01-22T00:35:19.345Z,82.03
2018-01-22T00:37:45.940Z,82.17
2018-01-22T00:40:13.315Z,82.12
2018-01-22T00:42:39.922Z,82.17
2018-01-22T00:45:07.270Z,82.33
2018-01-22T00:47:33.957Z,82.34
2018-01-22T00:50:00.542Z,82.19
2018-01-22T00:52:27.105Z,82.59
2018-01-22T00:54:53.931Z,82.58
2018-01-22T00:57:21.218Z,82.73
2018-01-22T00:59:48.073Z,82.79
2018-01-22T01:02:14.642Z,82.86
2018-01-22T01:04:41.205Z,82.99
2018-01-22T01:07:08.602Z,83.19
2018-01-22T01:09:35.150Z,83.15
2018-01-22T01:12:01.722Z,83.29
2018-01-22T01:14:29.053Z,83.50
2018-01-22T01:16:56.416Z,83.70
2018-01-22T01:19:22.981Z,83.83
2018-01-22T01:21:49.844Z,83.84
2018-01-22T01:24:16.398Z,84.02
2018-01-22T01:26:42.956Z,84.00
2018-01-22T01:29:09.541Z,84.13
2018-01-22T01:31:36.112Z,84.22
2018-01-22T01:34:02.699Z,84.25
2018-01-22T01:36:29.285Z,84.25
2018-01-22T01:38:55.850Z,84.24
2018-01-22T01:41:23.210Z,84.59
2018-01-22T01:43:49.778Z,84.52
2018-01-22T01:46:16.359Z,84.61
2018-01-22T01:49:00.331Z,84.65
2018-01-22T01:51:26.936Z,84.53
2018-01-22T01:53:53.502Z,84.89
2018-01-22T01:56:20.857Z,85.04
2018-01-22T01:58:48.161Z,84.95
2018-01-22T02:01:14.755Z,85.03
2018-01-22T02:03:41.355Z,84.96
2018-01-22T02:06:07.930Z,85.12
2018-01-22T02:08:35.235Z,85.34
2018-01-22T02:11:01.869Z,85.37
2018-01-22T02:13:28.469Z,85.25
2018-01-22T02:15:55.064Z,85.20
2018-01-22T02:18:22.386Z,85.29
2018-01-22T02:20:49.018Z,85.21
2018-01-22T02:23:16.600Z,85.55
2018-01-22T02:25:43.164Z,85.41
2018-01-22T02:28:10.482Z,85.40
2018-01-22T02:30:37.050Z,85.35
2018-01-22T02:33:03.622Z,85.66
2018-01-22T02:35:30.215Z,85.96
2018-01-22T02:37:56.781Z,85.96
2018-01-22T02:40:23.409Z,86.03
2018-01-22T02:42:50.024Z,85.97
2018-01-22T02:45:16.598Z,85.93
2018-01-22T02:47:43.886Z,86.08
2018-01-22T02:50:10.487Z,86.01
2018-01-22T02:52:37.086Z,86.00
2018-01-22T02:55:03.638Z,86.19
2018-01-22T02:57:31.270Z,86.14
2018-01-22T02:59:57.810Z,86.18
2018-01-22T03:02:24.362Z,86.35
2018-01-22T03:04:51.703Z,86.34
2018-01-22T03:07:18.270Z,86.45
2018-01-22T03:09:45.586Z,86.53
2018-01-22T03:12:12.961Z,86.67
2018-01-22T03:14:39.546Z,86.48
2018-01-22T03:17:06.122Z,86.90
2018-01-22T03:19:32.726Z,86.90
2018-01-22T03:21:59.293Z,86.87
2018-01-22T03:24:25.849Z,86.87
2018-01-22T03:26:52.412Z,86.95
2018-01-22T03:29:18.957Z,86.88
2018-01-22T03:31:45.518Z,87.02
2018-01-22T03:34:13.400Z,87.10
2018-01-22T03:36:41.036Z,87.20
2018-01-22T03:39:07.588Z,87.18
2018-01-22T03:41:34.170Z,87.32
2018-01-22T03:44:01.518Z,87.26
2018-01-22T03:46:28.831Z,87.63
2018-01-22T03:48:55.422Z,87.63
2018-01-22T03:51:21.989Z,87.76
2018-01-22T03:53:48.554Z,87.73
2018-01-22T03:56:15.163Z,87.91
2018-01-22T03:58:41.733Z,88.12
2018-01-22T04:01:08.286Z,88.07
2018-01-22T04:03:35.617Z,88.05
2018-01-22T04:06:02.905Z,88.01
2018-01-22T04:08:29.490Z,87.97
2018-01-22T04:10:56.061Z,88.18
2018-01-22T04:13:22.601Z,88.06
2018-01-22T04:15:49.934Z,88.24
2018-01-22T04:18:16.531Z,88.10
2018-01-22T04:20:43.097Z,88.08
2018-01-22T04:23:09.650Z,88.29
2018-01-22T04:25:36.978Z,88.24
2018-01-22T04:28:03.894Z,88.42
2018-01-22T04:30:30.848Z,88.40
2018-01-22T04:32:57.398Z,88.37
2018-01-22T04:35:23.989Z,88.43
2018-01-22T04:37:51.586Z,88.25
2018-01-22T04:40:18.120Z,88.39
2018-01-22T04:42:44.685Z,88.32
2018-01-22T04:45:11.253Z,88.44
2018-01-22T04:47:38.541Z,88.40
2018-01-22T04:50:05.145Z,88.40
2018-01-22T04:52:31.717Z,88.41
2018-01-22T04:54:58.297Z,88.37
2018-01-22T04:57:24.829Z,88.65
2018-01-22T04:59:51.419Z,88.40
2018-01-22T05:02:18.005Z,88.51
2018-01-22T05:04:44.590Z,88.44
2018-01-22T05:07:11.144Z,88.61
2018-01-22T05:09:37.697Z,88.69
2018-01-22T05:12:04.281Z,88.61
2018-01-22T05:14:30.853Z,88.50
2018-01-22T05:16:57.433Z,88.56
2018-01-22T05:19:24.706Z,88.48
2018-01-22T05:21:51.250Z,88.43
2018-01-22T05:24:17.969Z,88.48
2018-01-22T05:26:44.590Z,88.85
2018-01-22T05:29:11.902Z,88.75
2018-01-22T05:31:38.468Z,88.70
2018-01-22T05:34:05.086Z,88.72
2018-01-22T05:36:31.681Z,88.65
2018-01-22T05:38:58.268Z,88.58
2018-01-22T05:41:26.542Z,88.76
2018-01-22T05:43:53.117Z,88.68
2018-01-22T05:46:19.797Z,88.79
2018-01-22T05:48:46.357Z,88.80
2018-01-22T05:51:13.733Z,88.91
2018-01-22T05:53:41.050Z,88.89
2018-01-22T05:56:07.672Z,89.01
2018-01-22T05:58:34.285Z,88.91
2018-01-22T06:01:00.919Z,88.90
2018-01-22T06:03:27.466Z,89.01
2018-01-22T06:05:54.062Z,89.04
2018-01-22T06:08:20.638Z,88.95
2018-01-22T06:10:47.241Z,89.05
2018-01-22T06:13:14.525Z,89.28
2018-01-22T06:15:41.117Z,89.23
2018-01-22T06:18:07.711Z,89.50
2018-01-22T06:20:34.305Z,89.60
2018-01-22T06:23:02.189Z,89.76
2018-01-22T06:25:28.818Z,89.89
2018-01-22T06:27:56.135Z,89.88
2018-01-22T06:30:23.428Z,89.92
2018-01-22T06:32:50.743Z,89.66
2018-01-22T06:35:17.302Z,89.58
2018-01-22T06:37:43.898Z,89.55
2018-01-22T06:40:10.516Z,89.50
2018-01-22T06:42:37.082Z,89.50
2018-01-22T06:45:03.734Z,89.48
2018-01-22T06:47:30.297Z,89.62
2018-01-22T06:49:57.600Z,89.69
2018-01-22T06:52:24.141Z,89.78
2018-01-22T06:54:50.710Z,89.75
2018-01-22T06:57:17.260Z,89.64
2018-01-22T06:59:44.592Z,89.55
2018-01-22T07:02:11.154Z,89.31
2018-01-22T07:04:37.919Z,89.30
2018-01-22T07:07:04.494Z,89.41
2018-01-22T07:09:31.074Z,89.36
2018-01-22T07:11:58.401Z,89.55
2018-01-22T07:14:25.718Z,89.50
2018-01-22T07:16:53.177Z,89.55
2018-01-22T07:19:19.790Z,89.33
2018-01-22T07:21:46.358Z,89.14
2018-01-22T07:24:13.070Z,89.22
2018-01-22T07:26:39.680Z,89.01
2018-01-22T07:29:07.029Z,89.06
2018-01-22T07:31:34.321Z,88.89
2018-01-22T07:34:01.059Z,88.75
2018-01-22T07:36:27.638Z,88.79
2018-01-22T07:38:54.966Z,88.72
2018-01-22T07:41:21.578Z,88.65
2018-01-22T07:43:48.173Z,88.73
2018-01-22T07:46:15.558Z,88.34
2018-01-22T07:48:42.157Z,88.09
2018-01-22T07:51:08.770Z,87.98
2018-01-22T07:53:35.346Z,88.14
2018-01-22T07:56:02.631Z,88.10
2018-01-22T07:58:29.222Z,88.15
2018-01-22T08:00:56.131Z,87.95
2018-01-22T08:03:22.706Z,87.98
2018-01-22T08:05:49.283Z,87.94
2018-01-22T08:08:15.890Z,87.73
2018-01-22T08:10:43.187Z,87.72
2018-01-22T08:13:09.733Z,87.80
2018-01-22T08:15:37.080Z,87.72
2018-01-22T08:18:03.678Z,87.81
2018-01-22T08:20:30.277Z,87.80
2018-01-22T08:22:56.918Z,87.65
2018-01-22T08:25:23.506Z,87.60
2018-01-22T08:27:50.082Z,87.56
2018-01-22T08:30:18.125Z,87.74
2018-01-22T08:32:44.823Z,87.45
2018-01-22T08:35:12.105Z,87.47
2018-01-22T08:37:38.686Z,87.43
2018-01-22T08:40:05.252Z,87.49
2018-01-22T08:42:32.554Z,87.49
2018-01-22T08:44:59.150Z,87.33
2018-01-22T08:47:26.458Z,87.33
2018-01-22T08:49:53.045Z,87.37
2018-01-22T08:52:19.620Z,87.46
2018-01-22T08:54:46.269Z,87.54
2018-01-22T08:57:12.830Z,87.31
2018-01-22T08:59:40.532Z,87.26
2018-01-22T09:02:07.070Z,87.33
2018-01-22T09:04:33.617Z,87.36
2018-01-22T09:07:00.615Z,87.26
2018-01-22T09:09:27.921Z,87.39
2018-01-22T09:11:54.494Z,87.42
2018-01-22T09:14:21.082Z,87.30
2018-01-22T09:16:47.786Z,87.17
2018-01-22T09:19:15.070Z,87.15
2018-01-22T09:21:42.465Z,87.37
2018-01-22T09:24:09.854Z,87.26
2018-01-22T09:26:36.475Z,87.39
2018-01-22T09:29:03.794Z,87.18
2018-01-22T09:31:30.379Z,87.33
2018-01-22T09:33:56.970Z,87.06
2018-01-22T09:36:23.524Z,86.80
2018-01-22T09:38:50.138Z,86.81
2018-01-22T09:41:16.681Z,86.85
2018-01-22T09:43:43.346Z,86.45
2018-01-22T09:46:09.994Z,86.13
2018-01-22T09:48:37.442Z,86.07
2018-01-22T09:51:04.029Z,86.03
2018-01-22T09:53:30.692Z,86.01
2018-01-22T09:55:57.397Z,86.35
2018-01-22T09:58:23.961Z,86.25
2018-01-22T10:00:50.700Z,86.20
2018-01-22T10:03:17.273Z,86.38
2018-01-22T10:05:44.575Z,86.52
2018-01-22T10:08:11.186Z,86.78
2018-01-22T10:10:37.770Z,86.82
2018-01-22T10:13:04.376Z,86.88
2018-01-22T10:15:30.929Z,86.82
2018-01-22T10:17:57.506Z,86.95
2018-01-22T10:20:24.813Z,86.90
2018-01-22T10:22:51.417Z,86.89
2018-01-22T10:25:18.015Z,86.92
2018-01-22T10:27:44.605Z,86.58
2018-01-22T10:30:11.253Z,86.77
2018-01-22T10:32:37.852Z,86.62
2018-01-22T10:35:05.166Z,86.72
2018-01-22T10:37:31.745Z,86.82
2018-01-22T10:39:58.334Z,86.78
2018-01-22T10:42:24.956Z,86.94
2018-01-22T10:44:51.662Z,86.93
2018-01-22T10:47:18.258Z,86.96
2018-01-22T10:49:44.846Z,86.78
2018-01-22T10:52:11.406Z,86.94
2018-01-22T10:54:38.034Z,86.61
2018-01-22T10:57:04.611Z,86.83
2018-01-22T10:59:31.200Z,86.95
2018-01-22T11:01:57.764Z,86.74
2018-01-22T11:04:24.332Z,86.71
2018-01-22T11:06:50.934Z,86.67
2018-01-22T11:09:17.485Z,86.56
2018-01-22T11:11:44.045Z,86.64
2018-01-22T11:14:11.373Z,86.64
2018-01-22T11:16:38.657Z,86.72
2018-01-22T11:19:05.941Z,86.65
2018-01-22T11:21:32.649Z,86.76
2018-01-22T11:23:59.969Z,86.77
2018-01-22T11:26:26.550Z,86.65
2018-01-22T11:28:53.181Z,86.68
2018-01-22T11:31:20.467Z,86.59
2018-01-22T11:33:47.070Z,86.41
2018-01-22T11:36:13.621Z,86.46
2018-01-22T11:38:40.177Z,86.53
2018-01-22T11:41:06.754Z,86.68
2018-01-22T11:43:33.333Z,86.48
2018-01-22T11:45:59.993Z,86.40
2018-01-22T11:48:26.541Z,86.41
2018-01-22T11:50:53.332Z,86.58
2018-01-22T11:53:20.614Z,86.54
2018-01-22T11:55:47.223Z,86.41
2018-01-22T11:58:14.526Z,86.26
2018-01-22T12:00:41.162Z,86.09
2018-01-22T12:03:07.818Z,85.83
2018-01-22T12:05:34.369Z,85.52
2018-01-22T12:08:01.670Z,85.37
2018-01-22T12:10:28.246Z,85.39
2018-01-22T12:12:54.798Z,85.38
2018-01-22T12:15:22.133Z,85.02
2018-01-22T12:17:48.717Z,85.03
2018-01-22T12:20:15.310Z,84.98
2018-01-22T12:22:41.893Z,84.87
2018-01-22T12:25:08.473Z,84.86
2018-01-22T12:27:35.041Z,85.04
2018-01-22T12:30:01.686Z,85.00
2018-01-22T12:32:28.274Z,84.80
2018-01-22T12:34:54.825Z,84.92
2018-01-22T12:37:21.403Z,84.80
2018-01-22T12:39:47.975Z,84.96
2018-01-22T12:42:14.546Z,84.74
2018-01-22T12:44:41.957Z,84.72
2018-01-22T12:47:08.530Z,84.81
2018-01-22T12:49:35.086Z,84.64
2018-01-22T12:52:02.410Z,84.86
2018-01-22T12:54:28.973Z,85.14
2018-01-22T12:56:56.340Z,85.02
2018-01-22T12:59:22.940Z,84.21
2018-01-22T13:01:49.555Z,84.25
2018-01-22T13:04:16.127Z,84.20
2018-01-22T13:06:43.417Z,84.01
2018-01-22T13:09:09.977Z,84.06
2018-01-22T13:11:36.530Z,84.25
2018-01-22T13:14:03.114Z,84.05
2018-01-22T13:16:29.754Z,84.10
2018-01-22T13:18:56.318Z,84.29
2018-01-22T13:21:23.018Z,84.42
2018-01-22T13:23:49.554Z,84.26
2018-01-22T13:26:16.130Z,84.71
2018-01-22T13:28:42.726Z,84.84
2018-01-22T13:31:10.294Z,84.72
2018-01-22T13:33:36.863Z,85.04
2018-01-22T13:36:03.474Z,85.08
2018-01-22T13:38:30.090Z,85.54
2018-01-22T13:41:02.809Z,85.80
2018-01-22T13:43:29.368Z,85.78
2018-01-22T13:45:55.962Z,85.75
2018-01-22T13:48:22.549Z,85.74
2018-01-22T13:50:49.107Z,85.90
2018-01-22T13:53:16.454Z,85.91
2018-01-22T13:55:43.002Z,85.93
2018-01-22T13:58:10.308Z,85.69
2018-01-22T14:00:36.906Z,86.07
2018-01-22T14:03:03.539Z,86.17
2018-01-22T14:05:30.112Z,86.10
2018-01-22T14:07:56.714Z,86.17
2018-01-22T14:10:23.299Z,85.87
2018-01-22T14:12:49.894Z,86.15
2018-01-22T14:15:16.433Z,86.38
2018-01-22T14:17:43.058Z,86.49
2018-01-22T14:20:09.713Z,86.42
2018-01-22T14:22:36.279Z,86.51
2018-01-22T14:25:02.891Z,86.22
2018-01-22T14:27:29.435Z,86.48
2018-01-22T14:29:56.027Z,86.72
2018-01-22T14:32:23.357Z,86.64
2018-01-22T14:34:50.701Z,86.46
2018-01-22T14:37:17.263Z,86.47
2018-01-22T14:39:44.698Z,86.68
2018-01-22T14:42:11.327Z,86.31
2018-01-22T14:44:37.905Z,86.46
2018-01-22T14:47:05.273Z,86.50
2018-01-22T14:49:31.858Z,86.71
2018-01-22T14:51:58.444Z,86.78
2018-01-22T14:54:25.006Z,86.82
2018-01-22T14:56:51.617Z,86.91
2018-01-22T14:59:18.159Z,87.09
2018-01-22T15:01:44.743Z,86.95
2018-01-22T15:04:11.343Z,87.04
2018-01-22T15:06:37.921Z,87.04
2018-01-22T15:09:04.558Z,87.16
2018-01-22T15:11:31.179Z,87.12
2018-01-22T15:13:57.766Z,87.03
2018-01-22T15:16:24.360Z,87.01
2018-01-22T15:18:50.959Z,86.88
2018-01-22T15:21:17.553Z,87.10
2018-01-22T15:23:44.870Z,87.30
2018-01-22T15:26:11.556Z,87.57
2018-01-22T15:28:38.145Z,87.54
2018-01-22T15:31:04.722Z,87.45
2018-01-22T15:33:31.357Z,87.66
2018-01-22T15:35:58.682Z,87.49
2018-01-22T15:38:25.269Z,87.32
2018-01-22T15:40:52.606Z,86.89
2018-01-22T15:43:19.942Z,86.66
2018-01-22T15:45:46.544Z,86.57
2018-01-22T15:48:13.246Z,86.37
2018-01-22T15:50:40.578Z,86.22
2018-01-22T15:53:07.148Z,86.14
2018-01-22T15:55:33.787Z,86.30
2018-01-22T15:58:00.339Z,86.49
2018-01-22T16:00:26.947Z,86.66
2018-01-22T16:02:53.577Z,86.63
2018-01-22T16:05:20.918Z,86.48
2018-01-22T16:07:47.491Z,86.85
2018-01-22T16:10:14.097Z,87.12
2018-01-22T16:12:41.449Z,87.23
2018-01-22T16:15:08.210Z,87.20
2018-01-22T16:17:34.830Z,87.53
2018-01-22T16:20:02.174Z,87.46
2018-01-22T16:22:28.800Z,87.20
2018-01-22T16:24:55.378Z,87.16
2018-01-22T16:27:21.967Z,87.46
2018-01-22T16:29:48.561Z,87.62
2018-01-22T16:32:15.157Z,88.01
2018-01-22T16:34:41.759Z,88.05
2018-01-22T16:37:08.326Z,87.77
2018-01-22T16:39:34.978Z,87.48
2018-01-22T16:42:02.316Z,87.38
2018-01-22T16:44:28.898Z,87.56
2018-01-22T16:47:01.599Z,87.74
2018-01-22T16:49:28.221Z,87.83
2018-01-22T16:51:54.818Z,88.10
2018-01-22T16:54:21.632Z,88.18
2018-01-22T16:56:48.248Z,88.25
2018-01-22T16:59:14.891Z,88.24
2018-01-22T17:01:41.603Z,87.78
2018-01-22T17:04:08.282Z,87.94
2018-01-22T17:06:34.860Z,88.27
2018-01-22T17:09:02.290Z,88.35
2018-01-22T17:11:29.652Z,88.64
2018-01-22T17:13:56.211Z,88.44
2018-01-22T17:16:23.597Z,88.63
2018-01-22T17:18:50.194Z,88.71
2018-01-22T17:21:17.545Z,88.76
2018-01-22T17:23:44.906Z,88.22
2018-01-22T17:26:11.489Z,88.22
2018-01-22T17:28:38.066Z,88.50
2018-01-22T17:31:05.412Z,88.20
2018-01-22T17:33:32.083Z,88.13
2018-01-22T17:35:58.694Z,88.21
2018-01-22T17:38:25.318Z,88.17
2018-01-22T17:40:51.931Z,88.33
2018-01-22T17:43:19.375Z,88.40
2018-01-22T17:45:45.978Z,88.53
2018-01-22T17:48:13.375Z,88.61
2018-01-22T17:50:40.066Z,88.74
2018-01-22T17:53:07.449Z,88.75
2018-01-22T17:55:34.019Z,88.70
2018-01-22T17:58:01.385Z,88.90
2018-01-22T18:00:28.030Z,89.00
2018-01-22T18:02:54.648Z,88.78
2018-01-22T18:05:21.218Z,88.72
2018-01-22T18:07:48.568Z,88.70
2018-01-22T18:10:15.171Z,88.83
2018-01-22T18:12:41.751Z,88.77
2018-01-22T18:15:08.357Z,88.44
2018-01-22T18:17:34.976Z,88.35
2018-01-22T18:20:01.583Z,88.38
2018-01-22T18:22:28.202Z,88.27
2018-01-22T18:24:54.860Z,87.98
2018-01-22T18:27:21.529Z,87.99
2018-01-22T18:29:48.135Z,87.65
2018-01-22T18:32:14.733Z,87.42
2018-01-22T18:34:41.327Z,87.10
2018-01-22T18:37:08.451Z,86.60
2018-01-22T18:39:35.042Z,86.78
2018-01-22T18:42:01.623Z,86.98
2018-01-22T18:44:28.210Z,87.02
2018-01-22T18:46:54.808Z,86.86
2018-01-22T18:49:21.484Z,86.98
2018-01-22T18:51:48.084Z,87.04
2018-01-22T18:54:14.737Z,86.40
2018-01-22T18:56:41.338Z,86.41
2018-01-22T18:59:08.694Z,86.34
2018-01-22T19:01:35.301Z,86.51
2018-01-22T19:04:01.923Z,86.57
2018-01-22T19:06:29.437Z,86.87
2018-01-22T19:08:56.004Z,86.93
2018-01-22T19:11:22.575Z,86.83
2018-01-22T19:13:49.223Z,86.68
2018-01-22T19:16:16.567Z,86.61
2018-01-22T19:18:43.201Z,86.58
2018-01-22T19:21:09.774Z,86.35
2018-01-22T19:23:36.382Z,86.50
2018-01-22T19:26:03.751Z,85.98
2018-01-22T19:28:31.145Z,85.89
2018-01-22T19:30:57.789Z,85.94
2018-01-22T19:33:24.577Z,86.02
2018-01-22T19:35:51.948Z,86.09
2018-01-22T19:38:19.598Z,86.41
2018-01-22T19:40:46.976Z,86.58
2018-01-22T19:43:13.697Z,86.65
2018-01-22T19:45:41.045Z,86.80
2018-01-22T19:48:07.766Z,86.71
2018-01-22T19:50:35.185Z,86.47
2018-01-22T19:53:01.862Z,86.56
2018-01-22T19:55:28.482Z,86.02
2018-01-22T19:57:55.978Z,85.54
2018-01-22T20:00:22.910Z,85.75
2018-01-22T20:02:49.543Z,85.51
2018-01-22T20:05:16.153Z,85.32
2018-01-22T20:07:42.854Z,85.30
2018-01-22T20:10:09.451Z,84.81
2018-01-22T20:12:36.840Z,84.72
2018-01-22T20:15:03.552Z,84.91
2018-01-22T20:17:30.865Z,84.81
2018-01-22T20:19:57.554Z,85.14
2018-01-22T20:22:24.146Z,84.95
2018-01-22T20:24:50.890Z,84.91
2018-01-22T20:27:17.562Z,85.00
2018-01-22T20:29:44.134Z,84.80
2018-01-22T20:32:10.996Z,84.39
2018-01-22T20:34:37.604Z,84.31
2018-01-22T20:37:04.232Z,84.68
2018-01-22T20:39:30.850Z,84.96
2018-01-22T20:41:57.480Z,85.21
2018-01-22T20:44:24.168Z,85.66
2018-01-22T20:46:50.751Z,85.75
2018-01-22T20:49:17.345Z,85.51
2018-01-22T20:51:44.012Z,85.34
2018-01-22T20:54:10.686Z,84.63
2018-01-22T20:56:37.292Z,84.30
2018-01-22T20:59:03.965Z,84.38
2018-01-22T21:01:31.335Z,84.70
2018-01-22T21:03:57.937Z,84.79
2018-01-22T21:06:24.644Z,84.38
2018-01-22T21:08:51.294Z,84.48
2018-01-22T21:11:17.898Z,84.43
2018-01-22T21:13:44.611Z,84.18
2018-01-22T21:16:11.203Z,83.87
2018-01-22T21:18:38.611Z,84.19
2018-01-22T21:21:05.279Z,84.11
2018-01-22T21:23:31.919Z,84.14
2018-01-22T21:25:58.549Z,83.88
2018-01-22T21:28:25.168Z,83.66
2018-01-22T21:30:51.799Z,83.13
2018-01-22T21:33:18.437Z,82.94
2018-01-22T21:35:45.011Z,82.87
2018-01-22T21:38:11.605Z,82.87
2018-01-22T21:40:38.906Z,82.23
2018-01-22T21:43:05.509Z,81.99
2018-01-22T21:45:32.162Z,82.20
2018-01-22T21:47:58.759Z,82.61
2018-01-22T21:50:26.061Z,82.54
2018-01-22T21:52:52.734Z,82.88
2018-01-22T21:55:19.326Z,83.39
2018-01-22T21:57:45.995Z,83.27
2018-01-22T22:00:12.606Z,83.63
2018-01-22T22:02:39.215Z,83.40
2018-01-22T22:05:05.818Z,82.92
2018-01-22T22:07:32.395Z,83.06
2018-01-22T22:09:58.982Z,83.55
2018-01-22T22:12:26.361Z,83.73
2018-01-22T22:14:53.738Z,83.17
2018-01-22T22:17:20.313Z,82.89
2018-01-22T22:19:46.918Z,82.80
2018-01-22T22:22:13.566Z,83.27
2018-01-22T22:24:40.281Z,83.74
2018-01-22T22:27:06.946Z,83.54
2018-01-22T22:29:33.551Z,83.36
2018-01-22T22:32:00.892Z,83.82
2018-01-22T22:34:28.231Z,84.00
2018-01-22T22:36:54.873Z,83.83
2018-01-22T22:39:21.471Z,83.65
2018-01-22T22:41:48.090Z,83.02
2018-01-22T22:44:14.660Z,83.09
2018-01-22T22:46:41.303Z,83.17
2018-01-22T22:49:07.871Z,82.96
2018-01-22T22:51:34.476Z,83.03
2018-01-22T22:54:01.224Z,82.75
2018-01-22T22:56:27.876Z,82.92
2018-01-22T22:58:54.702Z,82.84
2018-01-22T23:01:21.311Z,82.88
2018-01-22T23:03:47.922Z,82.62
2018-01-22T23:06:14.578Z,82.43
2018-01-22T23:08:41.274Z,82.36
2018-01-22T23:11:07.879Z,82.28
2018-01-22T23:13:34.485Z,82.46
2018-01-22T23:16:01.106Z,82.53
2018-01-22T23:18:27.732Z,82.13
2018-01-22T23:20:54.313Z,82.23
2018-01-22T23:23:20.929Z,82.19
2018-01-22T23:25:47.542Z,82.29
2018-01-22T23:28:14.847Z,82.36
2018-01-22T23:30:41.467Z,82.03
2018-01-22T23:33:08.111Z,81.92
2018-01-22T23:35:34.686Z,81.37
2018-01-22T23:38:01.300Z,80.45
2018-01-22T23:40:27.893Z,80.31
2018-01-22T23:42:54.474Z,80.18
2018-01-22T23:45:21.802Z,80.60
2018-01-22T23:47:48.372Z,80.61
2018-01-22T23:50:14.979Z,80.73
2018-01-22T23:52:41.538Z,81.08
2018-01-22T23:55:08.127Z,81.14
2018-01-22T23:57:34.718Z,81.43
